Airfield :
LOGIN :

Register | Disclaimer

   EN    FR    IT 

 










Legend :    VFR   Marginal VFR   IFR   Intensive IFR   Very Intensive IFR
Visi :
Ceiling :
>= 8 km
>= 3000ft
5 to 8 km
1000 to 3000 ft
1500m to 5 km
500 to 1000 ft
800 to 1500m
200 to 500 ft
< 800m
< 200 ft
Symbols :   Thunderstorms  Fog  Heavy snow  Heavy precipitations  Wind > 20 kt
SIGMETs :     Misc.  Thunderstorms  Icing  Turbulence  Mountain Waves  Volcanic Ashes






- Airport Elevation : 117 ft
- IATA code : NWI


EGSH - Norwich

CURRENT METAR :
  • 201350Z 35006KT 320V020 9000 SCT006 BKN014 12/10 Q1011 TEMPO SCT014

EXPIRED METARs :
  • 201320Z 34006KT 8000 -DZ SCT011 BKN020 11/10 Q1010 TEMPO BKN011
  • 201250Z 33007KT 9999 FEW011 SCT020 BKN029 12/09 Q1010 NOSIG
  • 201220Z 32006KT 280V350 9999 FEW010 BKN016 12/10 Q1010 NOSIG
  • 201150Z 32005KT 9999 FEW010 BKN016 11/10 Q1010 NOSIG

TAF TAF EGSH
Valid from the 20 at 12:00 until the 20 at 21:00 UTC


201059Z 2012/2021 32005KT 9999 FEW030
PROB30
TEMPO 2012/2015 8000 BKN010
ATIS : +44 1603 420 640



MET'MAP, your aeronautical weather chart ! - Copyright ORBIFLY December 2007 - Disclaimer

ORBIFLY MET'MAP TEAM :

Programming & Development : Alexandra Zaïnal
Concept & Development : Baudouin d'Aumeries
Co-Development & Prog : Marc-Olivier Méhu
Technical & hardware support : Manuel Goepfert

Contact : metmap@orbifly.com




SOURCES & CREDITS :

   NOAA